Time;durP1;ratioP1;P1;durP2;ratioP2;P2;SDS_P1;SDS_P2;PMS_P1;PMS_P2;Temp;Humidity;BMP_temperature;BMP_pressure;BME280_temperature;BME280_humidity;BME280_pressure;Samples;Min_cycle;Max_cycle;Signal;HPM_P1;HPM_P2
2022/09/04 00:01:25;;;;;;;6.45;5.82;;;;;;;14.95;100.00;63540.28;5086233;28;20235;-75
2022/09/04 00:03:58;;;;;;;6.18;5.68;;;;;;;14.89;100.00;63541.75;5095379;28;20187;-76
2022/09/04 00:06:37;;;;;;;6.28;5.68;;;;;;;14.92;100.00;63539.72;5084100;28;20262;-75
2022/09/04 00:09:15;;;;;;;6.13;5.63;;;;;;;14.90;100.00;63533.06;5098688;28;20192;-75
2022/09/04 00:11:50;;;;;;;5.68;5.18;;;;;;;14.86;100.00;63533.50;5083985;28;20279;-76
2022/09/04 00:14:20;;;;;;;6.05;5.53;;;;;;;14.87;100.00;63539.66;5097937;28;20202;-76
2022/09/04 00:16:54;;;;;;;5.45;5.05;;;;;;;14.87;100.00;63540.19;5102729;28;20257;-75
2022/09/04 00:19:27;;;;;;;7.90;5.75;;;;;;;14.90;100.00;63538.19;5101003;28;20219;-74
2022/09/04 00:21:59;;;;;;;6.25;5.68;;;;;;;14.91;100.00;63538.69;5103779;28;20223;-76
2022/09/04 00:24:31;;;;;;;5.85;5.35;;;;;;;14.90;100.00;63538.19;5102720;28;20260;-75
2022/09/04 00:27:04;;;;;;;6.15;5.55;;;;;;;14.91;100.00;63541.78;5094637;28;20244;-76
2022/09/04 00:29:40;;;;;;;7.45;6.80;;;;;;;14.89;100.00;63536.63;5083274;28;20525;-75
2022/09/04 00:32:17;;;;;;;5.68;5.18;;;;;;;14.97;100.00;63542.34;5090005;28;20221;-75
2022/09/04 00:35:02;;;;;;;7.10;5.50;;;;;;;15.01;100.00;63549.09;5100867;28;20196;-76
2022/09/04 00:37:34;;;;;;;6.85;5.72;;;;;;;14.98;100.00;63548.53;5099597;28;20216;-74
2022/09/04 00:40:07;;;;;;;7.45;5.38;;;;;;;14.96;100.00;63541.84;5103624;28;20233;-75
2022/09/04 00:43:05;;;;;;;6.20;5.45;;;;;;;14.92;100.00;63544.88;5085354;28;20226;-77
2022/09/04 00:45:50;;;;;;;5.97;5.43;;;;;;;14.92;100.00;63540.25;5085409;28;20246;-75
2022/09/04 00:48:34;;;;;;;5.70;5.30;;;;;;;14.88;100.00;63535.56;5088439;28;20184;-75
2022/09/04 00:51:16;;;;;;;8.38;5.75;;;;;;;14.86;100.00;63536.06;5097637;28;20239;-75
2022/09/04 00:54:17;;;;;;;6.95;5.18;;;;;;;14.82;100.00;63527.28;5105581;28;20344;-75
2022/09/04 00:57:02;;;;;;;7.80;5.60;;;;;;;14.84;100.00;63528.88;5088893;28;20436;-76
2022/09/04 00:59:46;;;;;;;6.88;5.80;;;;;;;14.78;100.00;63525.19;5090233;28;20219;-76
2022/09/04 01:02:26;;;;;;;6.05;5.55;;;;;;;14.77;100.00;63527.22;5098475;28;20223;-75
2022/09/04 01:05:04;;;;;;;6.45;5.70;;;;;;;14.72;100.00;63524.09;5103218;28;20214;-75
2022/09/04 01:07:47;;;;;;;10.18;5.70;;;;;;;14.79;100.00;63529.31;5106210;28;20220;-76
2022/09/04 01:10:39;;;;;;;6.18;5.68;;;;;;;14.77;100.00;63526.72;5107766;28;20196;-75
2022/09/04 01:13:12;;;;;;;6.45;5.85;;;;;;;14.69;100.00;63518.41;5089871;28;20223;-75
2022/09/04 01:15:47;;;;;;;6.15;5.55;;;;;;;14.66;100.00;63515.28;5086515;28;20232;-75
2022/09/04 01:18:18;;;;;;;6.25;5.65;;;;;;;14.70;100.00;63517.38;5096067;28;20229;-76
2022/09/04 01:21:10;;;;;;;5.80;5.30;;;;;;;14.60;100.00;63509.56;5094506;28;20512;-76
2022/09/04 01:24:01;;;;;;;5.57;5.13;;;;;;;14.48;100.00;63491.47;5086904;28;20264;-75
2022/09/04 01:26:36;;;;;;;6.85;5.80;;;;;;;14.55;100.00;63501.28;5094587;28;20282;-76
2022/09/04 01:29:16;;;;;;;9.20;6.25;;;;;;;14.52;100.00;63495.63;5107567;28;20535;-75
2022/09/04 01:31:50;;;;;;;6.43;5.93;;;;;;;14.48;100.00;63497.09;5086551;28;20236;-76
2022/09/04 01:34:32;;;;;;;7.03;6.32;;;;;;;14.47;100.00;63493.50;5086556;28;20189;-76
2022/09/04 01:37:05;;;;;;;7.10;6.20;;;;;;;14.46;100.00;63486.81;5085693;28;20451;-76
2022/09/04 01:39:34;;;;;;;6.32;5.72;;;;;;;14.39;100.00;63484.69;5085962;28;20426;-76
2022/09/04 01:42:10;;;;;;;13.85;6.40;;;;;;;14.32;100.00;63475.38;5085721;28;20220;-75
2022/09/04 01:44:37;;;;;;;6.90;5.70;;;;;;;14.39;100.00;63484.69;5087148;28;20191;-76
2022/09/04 01:47:14;;;;;;;9.60;6.75;;;;;;;14.39;100.00;63484.69;5085176;28;20244;-77
2022/09/04 01:49:49;;;;;;;6.90;6.20;;;;;;;14.33;100.00;63476.41;5103750;28;20207;-75
2022/09/04 01:52:35;;;;;;;6.50;5.90;;;;;;;14.32;100.00;63477.41;5091740;28;20220;-75
2022/09/04 01:55:13;;;;;;;6.72;5.90;;;;;;;14.36;100.00;63481.56;5103396;28;20193;-77
2022/09/04 01:58:11;;;;;;;7.05;6.45;;;;;;;14.32;100.00;63475.38;5094465;28;20548;-76
2022/09/04 02:00:49;;;;;;;6.75;6.15;;;;;;;14.32;100.00;63477.41;5107032;28;20493;-75
2022/09/04 02:03:25;;;;;;;6.97;6.28;;;;;;;14.34;100.00;63480.00;5087306;28;20185;-75
2022/09/04 02:06:01;;;;;;;6.03;5.25;;;;;;;14.33;100.00;63478.44;5103023;28;20287;-76
2022/09/04 02:08:56;;;;;;;8.50;6.85;;;;;;;14.33;100.00;63483.56;5094746;28;20494;-75
2022/09/04 02:11:26;;;;;;;8.02;6.30;;;;;;;14.27;100.00;63472.22;5085323;28;20217;-75
2022/09/04 02:14:16;;;;;;;7.55;6.32;;;;;;;14.19;100.00;63463.88;5088077;28;20189;-75
2022/09/04 02:16:56;;;;;;;7.63;6.82;;;;;;;14.21;100.00;63466.50;5102039;28;20236;-76
2022/09/04 02:19:36;;;;;;;6.03;5.43;;;;;;;14.25;100.00;63467.56;5105368;28;20192;-76
2022/09/04 02:22:14;;;;;;;7.57;6.68;;;;;;;14.26;100.00;63469.13;5097173;28;20251;-76
2022/09/04 02:24:53;;;;;;;8.15;6.30;;;;;;;14.24;100.00;63469.59;5084712;28;20212;-75
2022/09/04 02:27:28;;;;;;;6.95;6.35;;;;;;;14.22;100.00;63472.63;5092266;28;20271;-77
2022/09/04 02:30:02;;;;;;;7.05;5.43;;;;;;;14.21;100.00;63463.41;5099482;28;20245;-76
2022/09/04 02:32:38;;;;;;;8.60;6.40;;;;;;;14.24;100.00;63471.63;5105545;28;20215;-76
2022/09/04 02:35:16;;;;;;;6.63;6.03;;;;;;;14.21;100.00;63463.41;5086277;28;20235;-74
2022/09/04 02:37:55;;;;;;;7.30;6.53;;;;;;;14.16;100.00;63458.75;5085430;28;20236;-76
2022/09/04 02:40:32;;;;;;;9.85;6.50;;;;;;;14.16;100.00;63460.78;5085693;28;20208;-74
2022/09/04 02:43:16;;;;;;;7.38;6.35;;;;;;;14.14;100.00;63459.22;5093951;28;20203;-76
2022/09/04 02:45:48;;;;;;;8.32;6.70;;;;;;;14.13;100.00;63455.09;5105892;28;20208;-76
2022/09/04 02:48:23;;;;;;;9.48;6.57;;;;;;;14.14;100.00;63461.78;5096181;28;20230;-76
2022/09/04 02:51:06;;;;;;;7.20;6.50;;;;;;;14.09;100.00;63454.03;5083888;28;20228;-76
2022/09/04 02:53:41;;;;;;;7.55;6.70;;;;;;;14.05;100.00;63449.38;5084974;28;20196;-76
2022/09/04 02:56:24;;;;;;;9.38;6.88;;;;;;;14.03;100.00;63447.78;5084650;28;20224;-75
2022/09/04 02:59:07;;;;;;;7.38;6.32;;;;;;;14.01;100.00;63443.16;5085253;28;20473;-75
2022/09/04 03:01:44;;;;;;;7.80;6.88;;;;;;;13.99;100.00;63445.69;5085196;28;20385;-75
2022/09/04 03:04:17;;;;;;;7.47;6.75;;;;;;;13.98;100.00;63437.47;5102465;28;20237;-75
2022/09/04 03:06:53;;;;;;;6.47;5.85;;;;;;;13.96;100.00;63445.63;5093963;28;20213;-77
2022/09/04 03:09:25;;;;;;;7.38;6.18;;;;;;;13.91;100.00;63438.41;5100894;28;20201;-75
2022/09/04 03:12:00;;;;;;;6.68;6.07;;;;;;;13.90;100.00;63434.81;5092321;28;20284;-76
2022/09/04 03:14:33;;;;;;;6.40;5.80;;;;;;;13.81;100.00;63427.50;5105022;28;20195;-74
2022/09/04 03:17:09;;;;;;;7.93;7.13;;;;;;;13.79;100.00;63428.53;5105670;28;20286;-76
2022/09/04 03:19:43;;;;;;;8.00;7.05;;;;;;;13.77;100.00;63421.31;5091486;28;20204;-75
2022/09/04 03:22:17;;;;;;;9.40;8.05;;;;;;;13.78;100.00;63422.38;5095633;28;20275;-74
2022/09/04 03:25:03;;;;;;;7.82;6.97;;;;;;;13.76;100.00;63419.75;5104187;28;20235;-75
2022/09/04 03:27:32;;;;;;;11.57;8.35;;;;;;;13.84;100.00;63430.63;5085251;28;20251;-77
2022/09/04 03:30:05;;;;;;;11.20;9.10;;;;;;;13.88;100.00;63432.22;5084908;28;20443;-75
2022/09/04 03:32:48;;;;;;;10.38;9.15;;;;;;;13.98;100.00;63447.22;5094207;28;20208;-75
2022/09/04 03:35:26;;;;;;;11.00;8.93;;;;;;;14.04;100.00;63450.88;5104287;28;20249;-76
2022/09/04 03:38:13;;;;;;;12.65;9.20;;;;;;;14.11;100.00;63455.59;5085390;28;20270;-76
2022/09/04 03:40:44;;;;;;;14.25;10.77;;;;;;;14.23;100.00;63466.00;5083858;28;20204;-75
2022/09/04 03:43:29;;;;;;;17.25;12.20;;;;;;;14.31;100.00;63474.31;5085766;28;20206;-75
2022/09/04 03:46:05;;;;;;;23.40;12.88;;;;;;;14.32;100.00;63477.94;5102669;28;20265;-74
2022/09/04 03:48:54;;;;;;;21.20;13.40;;;;;;;14.41;100.00;63486.75;5102395;28;20351;-76
2022/09/04 03:51:28;;;;;;;18.52;11.82;;;;;;;14.44;100.00;63489.88;5100479;28;20232;-74
2022/09/04 03:54:07;;;;;;;20.33;12.90;;;;;;;14.46;100.00;63487.34;5093810;28;20203;-77
2022/09/04 03:56:52;;;;;;;17.60;12.30;;;;;;;14.43;100.00;63488.81;5085738;28;20257;-75
2022/09/04 03:59:46;;;;;;;19.75;13.30;;;;;;;14.47;100.00;63490.94;5084670;28;20208;-76
2022/09/04 04:02:25;;;;;;;107.13;64.65;;;;;;;14.41;100.00;63484.72;5094136;28;20220;-76
2022/09/04 04:05:24;;;;;;;25.92;15.27;;;;;;;14.58;100.00;63506.97;5092390;28;20204;-75
2022/09/04 04:08:04;;;;;;;23.15;14.75;;;;;;;14.59;100.00;63503.41;5093989;28;20220;-75
2022/09/04 04:10:44;;;;;;;21.98;12.82;;;;;;;14.53;100.00;63496.66;5104417;28;20210;-75
2022/09/04 04:13:27;;;;;;;23.75;13.63;;;;;;;14.53;100.00;63496.66;5097149;28;20293;-77
2022/09/04 04:16:11;;;;;;;17.75;11.60;;;;;;;14.56;100.00;63497.22;5088778;28;20552;-75
2022/09/04 04:19:00;;;;;;;58.38;36.22;;;;;;;14.58;100.00;63509.53;5087247;28;20185;-75
2022/09/04 04:21:54;;;;;;;21.77;12.85;;;;;;;14.58;100.00;63499.78;5098082;28;20534;-77
2022/09/04 04:24:49;;;;;;;23.23;12.38;;;;;;;14.66;100.00;63510.16;5091520;28;20197;-76
2022/09/04 04:27:28;;;;;;;19.08;13.43;;;;;;;14.74;100.00;63521.53;5090492;28;20221;-78
2022/09/04 04:30:07;;;;;;;19.10;12.18;;;;;;;14.77;100.00;63529.78;5113345;28;20206;-76
2022/09/04 04:33:14;;;;;;;20.75;12.23;;;;;;;14.74;100.00;63518.47;5111150;28;20221;-76
2022/09/04 04:35:49;;;;;;;15.88;12.35;;;;;;;14.56;100.00;63508.00;5051603;28;20200;-77
2022/09/04 04:38:31;;;;;;;30.85;20.73;;;;;;;14.43;100.00;63486.78;5097011;28;20270;-76
2022/09/04 04:41:20;;;;;;;20.42;11.50;;;;;;;14.40;100.00;63488.81;5092953;28;20265;-75
2022/09/04 04:44:00;;;;;;;18.48;11.45;;;;;;;14.44;100.00;63495.53;5112332;28;20185;-76
2022/09/04 04:46:41;;;;;;;19.27;11.85;;;;;;;14.60;100.00;63507.00;5102148;28;20258;-76
2022/09/04 04:49:47;;;;;;;17.05;12.35;;;;;;;14.71;100.00;63520.47;5102600;28;20192;-76
2022/09/04 04:52:29;;;;;;;18.00;11.60;;;;;;;14.85;100.00;63530.41;5077691;28;20222;-77
2022/09/04 04:55:06;;;;;;;19.90;12.18;;;;;;;15.00;100.00;63548.03;5088967;28;20408;-76
2022/09/04 04:57:45;;;;;;;15.70;12.88;;;;;;;14.88;100.00;63538.13;5104332;28;20227;-75
2022/09/04 05:00:18;;;;;;;19.33;13.30;;;;;;;14.81;100.00;63533.94;5088484;28;20204;-76
2022/09/04 05:02:59;;;;;;;17.80;12.07;;;;;;;14.92;100.00;63540.25;5088187;28;20461;-77
2022/09/04 05:05:46;;;;;;;17.20;12.35;;;;;;;15.13;100.00;63564.13;5089809;28;20192;-75
2022/09/04 05:08:23;;;;;;;16.63;12.15;;;;;;;15.29;100.00;63575.59;5093814;28;20293;-76
2022/09/04 05:11:00;;;;;;;17.63;11.07;;;;;;;15.19;100.00;63564.69;5092758;28;20548;-79
2022/09/04 05:13:34;;;;;;;17.60;11.15;;;;;;;15.22;100.00;63570.91;5094451;28;20185;-76
2022/09/04 05:16:12;;;;;;;17.13;10.75;;;;;;;15.41;100.00;63595.78;5088294;28;20219;-75
2022/09/04 05:18:50;;;;;;;11.00;9.82;;;;;;;15.50;100.00;63604.63;5094464;28;20460;-76
2022/09/04 05:21:25;;;;;;;10.38;9.25;;;;;;;15.72;100.00;63624.94;5112966;28;20285;-76
2022/09/04 05:23:58;;;;;;;9.20;8.27;;;;;;;15.76;100.00;63629.63;5088907;28;20207;-74
2022/09/04 05:26:33;;;;;;;8.02;6.95;;;;;;;15.90;100.00;63643.66;5088923;28;20216;-77
2022/09/04 05:29:09;;;;;;;7.38;6.63;;;;;;;15.99;100.00;63653.53;5100695;28;20198;-75
2022/09/04 05:31:48;;;;;;;7.50;6.40;;;;;;;16.06;100.00;63657.72;5105776;28;20216;-75
2022/09/04 05:34:26;;;;;;;6.82;6.05;;;;;;;16.26;100.00;63678.53;5108243;28;20187;-75
2022/09/04 05:37:06;;;;;;;8.23;6.80;;;;;;;16.43;100.00;63696.22;5092555;28;20232;-76
2022/09/04 05:39:45;;;;;;;6.65;6.05;;;;;;;16.42;100.00;63697.22;5102978;28;20198;-77
2022/09/04 05:42:52;;;;;;;6.53;5.95;;;;;;;16.45;100.00;63698.28;5108044;28;20257;-77
2022/09/04 05:45:24;;;;;;;7.45;6.13;;;;;;;16.51;100.00;63702.00;5094783;28;20200;-77
2022/09/04 05:48:13;;;;;;;7.75;7.05;;;;;;;16.43;100.00;63698.78;5102438;28;20215;-75
2022/09/04 05:50:53;;;;;;;7.13;6.43;;;;;;;16.42;100.00;63695.19;5099219;28;20199;-75
2022/09/04 05:54:06;;;;;;;6.22;5.55;;;;;;;16.43;100.00;63698.28;5105980;28;20261;-76
2022/09/04 05:57:12;;;;;;;7.40;5.85;;;;;;;16.56;100.00;63714.38;5087829;28;20574;-75
2022/09/04 05:59:59;;;;;;;6.70;6.13;;;;;;;16.77;100.00;63728.53;5094140;28;20216;-76
2022/09/04 06:02:51;;;;;;;5.90;5.40;;;;;;;16.99;100.00;63759.13;5088418;28;20229;-77
2022/09/04 06:05:32;;;;;;;7.00;6.32;;;;;;;16.92;100.00;63749.78;5089479;28;20261;-77
2022/09/04 06:08:09;;;;;;;7.68;6.88;;;;;;;16.87;100.00;63741.50;5098719;28;20354;-76
2022/09/04 06:10:50;;;;;;;9.07;7.60;;;;;;;17.07;100.00;63759.72;5107370;28;20531;-76
2022/09/04 06:13:38;;;;;;;6.82;6.22;;;;;;;17.03;100.00;63758.16;5093769;28;20216;-74
2022/09/04 06:16:23;;;;;;;8.80;7.25;;;;;;;17.04;100.00;63759.19;5096641;28;20539;-75
2022/09/04 06:19:04;;;;;;;8.45;7.00;;;;;;;17.18;100.00;63776.34;5106498;28;20226;-75
2022/09/04 06:22:07;;;;;;;6.82;6.18;;;;;;;17.16;100.00;63777.34;5085306;28;20414;-75
2022/09/04 06:25:01;;;;;;;12.23;6.60;;;;;;;17.43;100.00;63796.69;5073686;28;20190;-77
2022/09/04 06:27:56;;;;;;;6.15;5.55;;;;;;;17.54;100.00;63808.69;5106624;28;20227;-75
2022/09/04 06:30:26;;;;;;;5.53;4.78;;;;;;;17.54;100.00;63808.69;5102662;28;20248;-75
2022/09/04 06:33:14;;;;;;;5.22;4.82;;;;;;;17.73;100.00;63833.09;5106024;28;20223;-75
2022/09/04 06:36:05;;;;;;;7.45;6.00;;;;;;;17.70;100.00;63830.50;5086120;28;20200;-75
2022/09/04 06:38:46;;;;;;;6.95;6.13;;;;;;;17.74;100.00;63836.72;5085137;28;20465;-76
2022/09/04 06:41:33;;;;;;;7.78;6.25;;;;;;;17.49;100.00;63808.63;5090388;28;20219;-76
2022/09/04 06:44:12;;;;;;;7.85;7.05;;;;;;;17.31;100.00;63787.28;5086522;28;20267;-75
2022/09/04 06:46:44;;;;;;;8.32;7.25;;;;;;;17.46;100.00;63800.38;5083596;28;20261;-74
2022/09/04 06:49:22;;;;;;;9.43;8.18;;;;;;;17.57;100.00;63816.44;5084409;28;20450;-76
2022/09/04 06:52:11;;;;;;;8.40;7.50;;;;;;;17.77;100.00;63835.22;5085184;28;20450;-77
2022/09/04 06:54:49;;;;;;;9.55;8.10;;;;;;;17.92;100.00;63850.84;5085395;28;20381;-76
2022/09/04 06:57:34;;;;;;;15.52;7.65;;;;;;;18.03;100.00;63864.34;5084704;28;20299;-75
2022/09/04 07:00:06;;;;;;;12.40;8.32;;;;;;;18.25;100.00;63882.13;5085703;28;20192;-77
2022/09/04 07:03:14;;;;;;;8.65;7.65;;;;;;;18.30;100.00;63892.47;5097222;28;20215;-77
2022/09/04 07:05:53;;;;;;;9.07;7.50;;;;;;;18.56;100.00;63916.47;5089148;28;20203;-78
2022/09/04 07:08:32;;;;;;;8.50;7.55;;;;;;;18.83;100.00;63944.63;5091749;28;20417;-77
2022/09/04 07:11:11;;;;;;;8.77;7.97;;;;;;;18.67;100.00;63925.91;5085321;28;20235;-77
2022/09/04 07:14:15;;;;;;;8.77;7.65;;;;;;;18.65;100.00;63925.88;5087206;28;20192;-75
2022/09/04 07:16:50;;;;;;;9.20;8.10;;;;;;;18.72;100.00;63933.16;5091968;28;20540;-76
2022/09/04 07:19:39;;;;;;;10.85;9.07;;;;;;;18.85;100.00;63951.88;5105662;28;20236;-78
2022/09/04 07:22:35;;;;;;;8.82;8.02;;;;;;;19.18;100.00;63981.66;5100606;28;20479;-77
2022/09/04 07:25:11;;;;;;;8.80;8.00;;;;;;;18.95;100.00;63960.25;5095163;28;20196;-76
2022/09/04 07:28:13;;;;;;;8.13;7.43;;;;;;;19.01;100.00;63963.91;5083739;28;20223;-76
2022/09/04 07:30:48;;;;;;;7.57;6.88;;;;;;;19.21;100.00;63982.19;5085684;28;20266;-75
2022/09/04 07:33:23;;;;;;;8.60;7.88;;;;;;;19.17;100.00;63982.66;5084560;28;20222;-77
2022/09/04 07:35:58;;;;;;;7.07;6.38;;;;;;;19.22;100.00;63980.63;5105485;28;20222;-76
2022/09/04 07:38:36;;;;;;;7.82;7.05;;;;;;;19.29;100.00;63992.59;5104713;28;20289;-77
2022/09/04 07:41:11;;;;;;;7.57;6.68;;;;;;;19.11;100.00;63974.34;5104782;28;20386;-76
2022/09/04 07:43:49;;;;;;;9.18;6.60;;;;;;;19.10;100.00;63975.38;5101346;28;20201;-77
2022/09/04 07:46:22;;;;;;;8.02;6.78;;;;;;;19.12;100.00;63969.72;5101129;28;20211;-76
2022/09/04 07:48:57;;;;;;;11.98;7.97;;;;;;;18.61;100.00;63924.81;5094423;28;20200;-78
2022/09/04 07:51:30;;;;;;;8.50;7.72;;;;;;;18.63;100.00;63921.19;5095110;28;20571;-77
2022/09/04 07:54:29;;;;;;;8.32;7.53;;;;;;;18.59;100.00;63919.59;5103727;28;20200;-76
2022/09/04 07:57:08;;;;;;;7.88;7.07;;;;;;;18.50;100.00;63912.81;5084999;28;20208;-76
2022/09/04 07:59:55;;;;;;;9.02;7.55;;;;;;;18.70;100.00;63933.66;5103478;28;20183;-76
2022/09/04 08:02:36;;;;;;;6.85;6.22;;;;;;;18.98;100.00;63965.44;5085761;28;20224;-76
2022/09/04 08:05:22;;;;;;;6.72;6.13;;;;;;;19.25;100.00;63991.00;5084117;28;20203;-77
2022/09/04 08:08:19;;;;;;;7.68;6.88;;;;;;;19.36;100.00;64003.00;5093216;28;20531;-76
2022/09/04 08:11:01;;;;;;;7.32;6.72;;;;;;;19.68;100.00;64035.34;5081254;28;20199;-76
2022/09/04 08:13:48;;;;;;;6.82;6.22;;;;;;;19.37;100.00;64001.47;5083387;28;20238;-77
2022/09/04 08:16:27;;;;;;;6.75;6.15;;;;;;;19.46;100.00;64010.88;5095379;28;20249;-76
2022/09/04 08:19:17;;;;;;;6.70;6.15;;;;;;;19.64;98.84;64031.69;5093633;28;20243;-77
2022/09/04 08:21:47;;;;;;;6.22;5.28;;;;;;;19.83;95.43;64048.41;5075151;28;20416;-77
2022/09/04 08:24:52;;;;;;;7.18;6.47;;;;;;;19.83;93.60;64056.69;5084976;28;20396;-76
2022/09/04 08:27:34;;;;;;;6.97;6.38;;;;;;;19.76;96.00;64043.69;5092377;28;20220;-76
2022/09/04 08:30:05;;;;;;;6.05;5.57;;;;;;;19.70;97.08;64042.59;5083937;28;20377;-76
2022/09/04 08:32:57;;;;;;;6.38;5.88;;;;;;;19.92;95.93;64055.72;5086637;28;20581;-77
2022/09/04 08:35:32;;;;;;;6.65;6.05;;;;;;;19.98;95.07;64064.59;5085909;28;20200;-77
2022/09/04 08:38:21;;;;;;;8.20;7.18;;;;;;;20.27;95.65;64096.91;5082265;28;20235;-75
2022/09/04 08:41:27;;;;;;;8.30;6.25;;;;;;;20.39;92.98;64107.38;5096358;28;20266;-76
2022/09/04 08:44:32;;;;;;;9.02;5.90;;;;;;;20.55;91.82;64120.97;5088894;28;20208;-76
2022/09/04 08:47:23;;;;;;;5.57;5.18;;;;;;;20.66;86.45;64135.56;5098062;28;20442;-78
2022/09/04 08:50:12;;;;;;;7.07;5.63;;;;;;;20.63;86.58;64132.44;5091049;28;20231;-75
2022/09/04 08:53:30;;;;;;;8.63;6.68;;;;;;;20.75;89.22;64143.91;5097022;28;20537;-76
2022/09/04 08:56:23;;;;;;;5.65;5.22;;;;;;;20.95;89.92;64167.91;5038352;28;20232;-77
2022/09/04 08:59:30;;;;;;;6.38;5.57;;;;;;;21.18;86.68;64191.41;5040221;28;20429;-76
2022/09/04 09:02:34;;;;;;;5.70;5.20;;;;;;;20.93;85.82;64168.41;5100865;28;20258;-78
2022/09/04 09:05:25;;;;;;;6.97;6.38;;;;;;;21.15;85.55;64191.41;5101736;28;20236;-76
2022/09/04 09:08:30;;;;;;;7.35;6.65;;;;;;;20.87;86.64;64156.44;5074458;28;20264;-77
2022/09/04 09:11:25;;;;;;;7.35;6.03;;;;;;;20.87;88.57;64156.97;5101969;28;20276;-76
2022/09/04 09:14:27;;;;;;;6.20;5.60;;;;;;;21.25;88.40;64198.72;5100474;28;20281;-77
2022/09/04 09:17:11;;;;;;;6.60;5.97;;;;;;;21.35;83.78;64209.69;5105472;28;20401;-75
2022/09/04 09:19:45;;;;;;;8.98;6.57;;;;;;;21.60;85.29;64233.22;5102195;28;20227;-76
2022/09/04 09:22:37;;;;;;;6.85;6.22;;;;;;;21.94;80.46;64270.84;5101499;28;20457;-76
2022/09/04 09:25:19;;;;;;;6.45;5.70;;;;;;;22.11;80.17;64288.59;5103840;28;20210;-79
2022/09/04 09:28:33;;;;;;;6.07;5.47;;;;;;;22.14;78.56;64288.63;5104372;28;20215;-77
2022/09/04 09:31:21;;;;;;;6.22;5.63;;;;;;;22.08;78.23;64288.06;5100754;28;20238;-77
2022/09/04 09:34:26;;;;;;;9.73;5.82;;;;;;;22.15;79.38;64290.19;5103205;28;20211;-78
2022/09/04 09:37:35;;;;;;;5.85;5.35;;;;;;;21.92;76.76;64263.56;5090082;28;20238;-77
2022/09/04 09:40:35;;;;;;;5.78;4.93;;;;;;;22.13;76.32;64292.75;5054896;28;20191;-75
2022/09/04 09:43:36;;;;;;;5.93;5.40;;;;;;;22.31;75.66;64311.59;5065678;28;20216;-77
2022/09/04 09:46:37;;;;;;;4.45;4.15;;;;;;;22.34;72.30;64307.44;5088512;28;20286;-76
2022/09/04 09:49:43;;;;;;;5.05;4.65;;;;;;;22.36;73.46;64311.63;5087638;28;20192;-75
2022/09/04 09:52:35;;;;;;;5.25;4.85;;;;;;;22.40;74.56;64315.81;5105160;28;20644;-75
2022/09/04 09:55:44;;;;;;;5.47;4.70;;;;;;;22.55;71.00;64336.69;5105863;28;20200;-74
2022/09/04 09:58:43;;;;;;;5.15;4.70;;;;;;;22.63;68.87;64342.44;5106000;28;20243;-75
2022/09/04 10:01:32;;;;;;;4.60;4.20;;;;;;;22.88;69.38;64369.09;5095492;28;20257;-77
2022/09/04 10:04:25;;;;;;;4.80;4.50;;;;;;;23.00;67.94;64375.97;5126786;28;20201;-77
2022/09/04 10:07:22;;;;;;;4.20;3.90;;;;;;;23.30;68.49;64409.94;5124126;28;20542;-77
2022/09/04 10:10:24;;;;;;;4.45;4.05;;;;;;;23.48;65.91;64428.78;5099688;28;20480;-78
2022/09/04 10:13:28;;;;;;;5.45;4.65;;;;;;;23.20;64.85;64399.47;5107701;28;20248;-77
2022/09/04 10:16:19;;;;;;;5.22;4.82;;;;;;;22.85;65.47;64363.38;5107661;28;20249;-77
2022/09/04 10:19:18;;;;;;;4.80;4.40;;;;;;;23.25;66.46;64407.28;5107448;28;20238;-75
2022/09/04 10:22:20;;;;;;;4.93;4.63;;;;;;;23.21;62.70;64397.38;5106048;28;20226;-75
2022/09/04 10:25:18;;;;;;;3.70;3.50;;;;;;;23.34;63.28;64413.59;5105350;28;20197;-76
2022/09/04 10:28:28;;;;;;;4.90;4.38;;;;;;;23.10;63.23;64385.88;5107424;28;20397;-76
2022/09/04 10:31:27;;;;;;;5.20;4.32;;;;;;;22.97;63.54;64375.41;5110813;28;20282;-76
2022/09/04 10:34:12;;;;;;;6.05;4.43;;;;;;;22.97;62.45;64378.00;5096403;28;20196;-76
2022/09/04 10:36:49;;;;;;;5.07;4.55;;;;;;;23.23;62.30;64402.59;5090445;28;20212;-77
2022/09/04 10:42:38;;;;;;;4.72;4.32;;;;;;;23.58;59.45;64441.84;5090976;28;20570;-76
2022/09/04 10:45:26;;;;;;;7.05;4.90;;;;;;;23.51;60.90;64428.78;5089874;28;20196;-77
2022/09/04 10:48:29;;;;;;;4.95;4.63;;;;;;;23.78;63.27;64462.75;5090356;28;20212;-77
2022/09/04 10:51:19;;;;;;;5.07;4.78;;;;;;;23.95;61.91;64482.63;5089239;28;20242;-76
2022/09/04 10:54:13;;;;;;;5.35;4.95;;;;;;;24.13;61.69;64501.50;5086755;28;20265;-75
2022/09/04 10:56:54;;;;;;;4.45;4.15;;;;;;;24.19;58.76;64507.25;5090300;28;20216;-75
2022/09/04 10:59:50;;;;;;;4.78;4.47;;;;;;;24.42;58.55;64529.25;5089180;28;20582;-76
2022/09/04 11:02:48;;;;;;;4.60;4.25;;;;;;;24.42;56.70;64526.13;5089751;28;20228;-75
2022/09/04 11:05:51;;;;;;;4.90;4.60;;;;;;;24.10;55.96;64495.22;5091987;28;20188;-76
2022/09/04 11:08:44;;;;;;;5.68;4.65;;;;;;;23.95;58.57;64477.44;5105720;28;20221;-75
2022/09/04 11:11:31;;;;;;;5.07;4.50;;;;;;;23.96;57.26;64476.41;5109512;28;20420;-75
2022/09/04 11:14:24;;;;;;;4.68;4.28;;;;;;;24.01;57.30;64486.31;5108896;28;20183;-75
2022/09/04 11:17:21;;;;;;;4.90;4.50;;;;;;;24.18;55.33;64501.00;5107963;28;20209;-77
2022/09/04 11:20:22;;;;;;;5.65;4.20;;;;;;;24.27;56.81;64516.16;5106469;28;20276;-77
2022/09/04 11:23:37;;;;;;;4.88;4.53;;;;;;;24.72;53.49;64554.94;5106618;28;20210;-77
2022/09/04 11:26:38;;;;;;;4.93;4.60;;;;;;;24.97;53.43;64586.84;5105219;28;20219;-75
2022/09/04 11:29:21;;;;;;;5.45;4.97;;;;;;;24.74;54.73;64559.66;5104215;28;20215;-75
2022/09/04 11:32:11;;;;;;;5.53;4.28;;;;;;;24.54;55.15;64539.19;5104926;28;20264;-77
2022/09/04 11:35:14;;;;;;;5.63;5.13;;;;;;;24.33;54.59;64514.63;5085671;28;20188;-76
2022/09/04 11:38:13;;;;;;;4.93;4.53;;;;;;;24.70;53.05;64560.66;5085399;28;20223;-77
2022/09/04 11:41:23;;;;;;;4.72;4.28;;;;;;;24.86;54.60;64577.44;5085715;28;20255;-74
2022/09/04 11:44:23;;;;;;;4.65;4.25;;;;;;;25.12;50.68;64604.66;5084915;28;20202;-77
2022/09/04 11:47:22;;;;;;;4.82;4.15;;;;;;;25.21;51.33;64608.88;5085664;28;20216;-75
2022/09/04 11:50:23;;;;;;;5.07;4.75;;;;;;;25.57;54.80;64646.09;5086776;28;20207;-75
2022/09/04 11:53:17;;;;;;;4.70;4.30;;;;;;;25.79;50.27;64672.28;5083246;28;20333;-76
2022/09/04 11:56:08;;;;;;;5.13;4.72;;;;;;;25.26;48.82;64610.97;5087276;28;20425;-75
2022/09/04 11:59:00;;;;;;;4.85;4.50;;;;;;;25.57;49.28;64646.63;5085691;28;20249;-75
2022/09/04 12:01:43;;;;;;;4.60;4.30;;;;;;;26.00;48.18;64691.69;5081999;28;20295;-77
2022/09/04 12:04:30;;;;;;;4.88;4.50;;;;;;;26.25;47.17;64719.97;5086573;28;20196;-76
2022/09/04 12:07:13;;;;;;;4.72;4.28;;;;;;;25.61;48.67;64653.41;5087991;28;20231;-76
2022/09/04 12:10:22;;;;;;;5.05;4.68;;;;;;;25.81;48.27;64674.38;5104366;28;20213;-75
2022/09/04 12:13:30;;;;;;;4.97;4.57;;;;;;;25.95;48.98;64691.66;5080056;28;20219;-76
2022/09/04 12:16:26;;;;;;;5.00;4.60;;;;;;;26.11;48.28;64705.81;5105717;28;20223;-76
2022/09/04 12:19:14;;;;;;;4.57;4.18;;;;;;;26.42;46.33;64739.91;5104497;28;20255;-76
2022/09/04 12:22:14;;;;;;;4.90;4.07;;;;;;;26.64;46.69;64760.34;5105604;28;20219;-75
2022/09/04 12:25:25;;;;;;;4.50;4.20;;;;;;;26.76;46.42;64770.34;5105056;28;20234;-76
2022/09/04 12:28:23;;;;;;;5.07;4.63;;;;;;;26.89;45.00;64786.59;5105050;28;20240;-78
2022/09/04 12:31:07;;;;;;;4.55;4.15;;;;;;;27.19;44.05;64818.06;5105230;28;20431;-74
2022/09/04 12:34:12;;;;;;;4.38;4.07;;;;;;;27.51;43.81;64853.75;5094012;28;20188;-75
2022/09/04 12:37:10;;;;;;;5.30;4.80;;;;;;;26.72;45.14;64766.13;5058066;28;20296;-76
2022/09/04 12:40:11;;;;;;;5.20;4.85;;;;;;;25.88;46.58;64681.19;5084579;28;20235;-73
2022/09/04 12:42:48;;;;;;;4.38;4.05;;;;;;;25.51;48.21;64642.41;5086795;28;20383;-72
2022/09/04 12:45:24;;;;;;;4.35;4.05;;;;;;;24.99;50.01;64588.44;5101970;28;20361;-73
2022/09/04 12:48:03;;;;;;;4.13;3.85;;;;;;;25.23;49.33;64618.78;5107699;28;20211;-76
2022/09/04 12:50:38;;;;;;;5.00;4.63;;;;;;;25.50;48.26;64639.28;5106940;28;20211;-73
2022/09/04 12:53:44;;;;;;;5.07;4.68;;;;;;;25.92;47.56;64683.28;5107860;28;20221;-72